Terminal Aerodrome Forecast
Issued by NWS

Current Version | Previous Version | Text Only | Print | Product List | Glossary Off
Versions: 1 2 3 4 5 6 7 8 9 10 11 12 13 14 15 16 17 18 19 20 21 22 23 24

000
FTUS41 KILN 271100
TAFLUK
TAF
KLUK 271138Z 2712/2812 22010KT P6SM -SHRA VCTS BKN030CB
      TEMPO 2713/2717 4SM -TSRA
     FM271700 26012G21KT P6SM VCTS BKN035CB
     FM272000 28014G22KT P6SM BKN040
     FM280000 29006KT P6SM SCT030 BKN250=

USA.gov is the U.S. government's official web portal to all federal, state and local government web resources and services.